sensor_id;sensor_type;location;lat;lon;timestamp;temperature;humidity
4002;DHT22;2015;48.670;9.060;2022-09-02T00:01:39;13.00;99.90
4002;DHT22;2015;48.670;9.060;2022-09-02T00:04:17;12.90;99.90
4002;DHT22;2015;48.670;9.060;2022-09-02T00:06:50;12.90;99.90
4002;DHT22;2015;48.670;9.060;2022-09-02T00:09:25;12.80;99.90
4002;DHT22;2015;48.670;9.060;2022-09-02T00:11:57;12.80;99.90
4002;DHT22;2015;48.670;9.060;2022-09-02T00:14:33;12.80;99.90
4002;DHT22;2015;48.670;9.060;2022-09-02T00:17:05;12.80;99.90
4002;DHT22;2015;48.670;9.060;2022-09-02T00:19:37;12.80;99.90
4002;DHT22;2015;48.670;9.060;2022-09-02T00:22:09;12.80;99.90
4002;DHT22;2015;48.670;9.060;2022-09-02T00:24:41;12.80;99.90
4002;DHT22;2015;48.670;9.060;2022-09-02T00:27:12;12.80;99.90
4002;DHT22;2015;48.670;9.060;2022-09-02T00:29:44;12.80;99.90
4002;DHT22;2015;48.670;9.060;2022-09-02T00:32:16;12.80;99.90
4002;DHT22;2015;48.670;9.060;2022-09-02T00:34:48;12.80;99.90
4002;DHT22;2015;48.670;9.060;2022-09-02T00:37:20;12.80;99.90
4002;DHT22;2015;48.670;9.060;2022-09-02T00:39:52;12.80;99.90
4002;DHT22;2015;48.670;9.060;2022-09-02T00:42:25;12.80;99.90
4002;DHT22;2015;48.670;9.060;2022-09-02T00:44:57;12.80;99.90
4002;DHT22;2015;48.670;9.060;2022-09-02T00:47:32;12.80;99.90
4002;DHT22;2015;48.670;9.060;2022-09-02T00:50:08;12.80;99.90
4002;DHT22;2015;48.670;9.060;2022-09-02T00:52:43;12.80;99.90
4002;DHT22;2015;48.670;9.060;2022-09-02T00:55:23;12.80;99.90
4002;DHT22;2015;48.670;9.060;2022-09-02T00:57:59;12.80;99.90
4002;DHT22;2015;48.670;9.060;2022-09-02T01:00:38;12.80;99.90
4002;DHT22;2015;48.670;9.060;2022-09-02T01:03:22;12.70;99.90
4002;DHT22;2015;48.670;9.060;2022-09-02T01:05:55;12.70;99.90
4002;DHT22;2015;48.670;9.060;2022-09-02T01:08:31;12.60;99.90
4002;DHT22;2015;48.670;9.060;2022-09-02T01:11:05;12.60;99.90
4002;DHT22;2015;48.670;9.060;2022-09-02T01:13:40;12.60;99.90
4002;DHT22;2015;48.670;9.060;2022-09-02T01:16:36;12.50;99.90
4002;DHT22;2015;48.670;9.060;2022-09-02T01:19:23;12.50;99.90
4002;DHT22;2015;48.670;9.060;2022-09-02T01:21:56;12.50;99.90
4002;DHT22;2015;48.670;9.060;2022-09-02T01:24:30;12.50;99.90
4002;DHT22;2015;48.670;9.060;2022-09-02T01:27:03;12.40;99.90
4002;DHT22;2015;48.670;9.060;2022-09-02T01:29:35;12.40;99.90
4002;DHT22;2015;48.670;9.060;2022-09-02T01:32:07;12.40;99.90
4002;DHT22;2015;48.670;9.060;2022-09-02T01:34:39;12.40;99.90
4002;DHT22;2015;48.670;9.060;2022-09-02T01:37:10;12.40;99.90
4002;DHT22;2015;48.670;9.060;2022-09-02T01:39:43;12.40;99.90
4002;DHT22;2015;48.670;9.060;2022-09-02T01:42:16;12.40;99.90
4002;DHT22;2015;48.670;9.060;2022-09-02T01:44:49;12.40;99.90
4002;DHT22;2015;48.670;9.060;2022-09-02T01:47:23;12.40;99.90
4002;DHT22;2015;48.670;9.060;2022-09-02T01:49:55;12.30;99.90
4002;DHT22;2015;48.670;9.060;2022-09-02T01:52:28;12.30;99.90
4002;DHT22;2015;48.670;9.060;2022-09-02T01:54:59;12.30;99.90
4002;DHT22;2015;48.670;9.060;2022-09-02T01:57:32;12.30;99.90
4002;DHT22;2015;48.670;9.060;2022-09-02T02:00:06;12.30;99.90
4002;DHT22;2015;48.670;9.060;2022-09-02T02:02:39;12.20;99.90
4002;DHT22;2015;48.670;9.060;2022-09-02T02:05:14;12.20;99.90
4002;DHT22;2015;48.670;9.060;2022-09-02T02:07:46;12.20;99.90
4002;DHT22;2015;48.670;9.060;2022-09-02T02:10:19;12.20;99.90
4002;DHT22;2015;48.670;9.060;2022-09-02T02:12:52;12.10;99.90
4002;DHT22;2015;48.670;9.060;2022-09-02T02:15:24;12.10;99.90
4002;DHT22;2015;48.670;9.060;2022-09-02T02:17:54;12.10;99.90
4002;DHT22;2015;48.670;9.060;2022-09-02T02:20:26;12.10;99.90
4002;DHT22;2015;48.670;9.060;2022-09-02T02:22:58;12.10;99.90
4002;DHT22;2015;48.670;9.060;2022-09-02T02:25:30;12.00;99.90
4002;DHT22;2015;48.670;9.060;2022-09-02T02:28:03;12.00;99.90
4002;DHT22;2015;48.670;9.060;2022-09-02T02:30:36;12.00;99.90
4002;DHT22;2015;48.670;9.060;2022-09-02T02:33:07;11.90;99.90
4002;DHT22;2015;48.670;9.060;2022-09-02T02:35:40;11.90;99.90
4002;DHT22;2015;48.670;9.060;2022-09-02T02:38:12;11.90;99.90
4002;DHT22;2015;48.670;9.060;2022-09-02T02:40:46;11.90;99.90
4002;DHT22;2015;48.670;9.060;2022-09-02T02:43:18;11.90;99.90
4002;DHT22;2015;48.670;9.060;2022-09-02T02:45:51;11.80;99.90
4002;DHT22;2015;48.670;9.060;2022-09-02T02:48:24;11.90;99.90
4002;DHT22;2015;48.670;9.060;2022-09-02T02:50:56;11.80;99.90
4002;DHT22;2015;48.670;9.060;2022-09-02T02:53:28;11.80;99.90
4002;DHT22;2015;48.670;9.060;2022-09-02T02:56:03;11.80;99.90
4002;DHT22;2015;48.670;9.060;2022-09-02T02:58:36;11.80;99.90
4002;DHT22;2015;48.670;9.060;2022-09-02T03:01:07;11.70;99.90
4002;DHT22;2015;48.670;9.060;2022-09-02T03:03:40;11.70;99.90
4002;DHT22;2015;48.670;9.060;2022-09-02T03:06:13;11.70;99.90
4002;DHT22;2015;48.670;9.060;2022-09-02T03:08:45;11.70;99.90
4002;DHT22;2015;48.670;9.060;2022-09-02T03:11:22;11.70;99.90
4002;DHT22;2015;48.670;9.060;2022-09-02T03:13:54;11.70;99.90
4002;DHT22;2015;48.670;9.060;2022-09-02T03:16:27;11.70;99.90
4002;DHT22;2015;48.670;9.060;2022-09-02T03:18:58;11.70;99.90
4002;DHT22;2015;48.670;9.060;2022-09-02T03:21:31;11.70;99.90
4002;DHT22;2015;48.670;9.060;2022-09-02T03:24:11;11.60;99.90
4002;DHT22;2015;48.670;9.060;2022-09-02T03:26:43;11.60;99.90
4002;DHT22;2015;48.670;9.060;2022-09-02T03:29:15;11.60;99.90
4002;DHT22;2015;48.670;9.060;2022-09-02T03:31:47;11.60;99.90
4002;DHT22;2015;48.670;9.060;2022-09-02T03:34:18;11.60;99.90
4002;DHT22;2015;48.670;9.060;2022-09-02T03:36:50;11.60;99.90
4002;DHT22;2015;48.670;9.060;2022-09-02T03:39:22;11.60;99.90
4002;DHT22;2015;48.670;9.060;2022-09-02T03:41:54;11.50;99.90
4002;DHT22;2015;48.670;9.060;2022-09-02T03:44:26;11.50;99.90
4002;DHT22;2015;48.670;9.060;2022-09-02T03:46:57;11.50;99.90
4002;DHT22;2015;48.670;9.060;2022-09-02T03:49:29;11.50;99.90
4002;DHT22;2015;48.670;9.060;2022-09-02T03:52:01;11.50;99.90
4002;DHT22;2015;48.670;9.060;2022-09-02T03:54:33;11.50;99.90
4002;DHT22;2015;48.670;9.060;2022-09-02T03:57:05;11.50;99.90
4002;DHT22;2015;48.670;9.060;2022-09-02T03:59:37;11.50;99.90
4002;DHT22;2015;48.670;9.060;2022-09-02T04:02:09;11.50;99.90
4002;DHT22;2015;48.670;9.060;2022-09-02T04:04:41;11.40;99.90
4002;DHT22;2015;48.670;9.060;2022-09-02T04:07:13;11.40;99.90
4002;DHT22;2015;48.670;9.060;2022-09-02T04:09:45;11.40;99.90
4002;DHT22;2015;48.670;9.060;2022-09-02T04:12:17;11.40;99.90
4002;DHT22;2015;48.670;9.060;2022-09-02T04:14:49;11.40;99.90
4002;DHT22;2015;48.670;9.060;2022-09-02T04:17:28;11.30;99.90
4002;DHT22;2015;48.670;9.060;2022-09-02T04:19:59;11.40;99.90
4002;DHT22;2015;48.670;9.060;2022-09-02T04:22:31;11.30;99.90
4002;DHT22;2015;48.670;9.060;2022-09-02T04:25:05;11.30;99.90
4002;DHT22;2015;48.670;9.060;2022-09-02T04:27:37;11.30;99.90
4002;DHT22;2015;48.670;9.060;2022-09-02T04:30:10;11.30;99.90
4002;DHT22;2015;48.670;9.060;2022-09-02T04:32:42;11.30;99.90
4002;DHT22;2015;48.670;9.060;2022-09-02T04:35:14;11.30;99.90
4002;DHT22;2015;48.670;9.060;2022-09-02T04:37:46;11.30;99.90
4002;DHT22;2015;48.670;9.060;2022-09-02T04:40:19;11.20;99.90
4002;DHT22;2015;48.670;9.060;2022-09-02T04:42:51;11.20;99.90
4002;DHT22;2015;48.670;9.060;2022-09-02T04:45:26;11.20;99.90
4002;DHT22;2015;48.670;9.060;2022-09-02T04:48:00;11.20;99.90
4002;DHT22;2015;48.670;9.060;2022-09-02T04:50:34;11.20;99.90
4002;DHT22;2015;48.670;9.060;2022-09-02T04:53:06;11.20;99.90
4002;DHT22;2015;48.670;9.060;2022-09-02T04:55:40;11.30;99.90
4002;DHT22;2015;48.670;9.060;2022-09-02T04:58:13;11.30;99.90
4002;DHT22;2015;48.670;9.060;2022-09-02T05:00:46;11.30;99.90
4002;DHT22;2015;48.670;9.060;2022-09-02T05:03:18;11.30;99.90
4002;DHT22;2015;48.670;9.060;2022-09-02T05:05:58;11.30;99.90
4002;DHT22;2015;48.670;9.060;2022-09-02T05:08:31;11.30;99.90
4002;DHT22;2015;48.670;9.060;2022-09-02T05:11:15;11.30;99.90
4002;DHT22;2015;48.670;9.060;2022-09-02T05:13:50;11.30;99.90
4002;DHT22;2015;48.670;9.060;2022-09-02T05:16:28;11.30;99.90
4002;DHT22;2015;48.670;9.060;2022-09-02T05:19:00;11.30;99.90
4002;DHT22;2015;48.670;9.060;2022-09-02T05:21:32;11.30;99.90
4002;DHT22;2015;48.670;9.060;2022-09-02T05:24:04;11.30;99.90
4002;DHT22;2015;48.670;9.060;2022-09-02T05:26:37;11.40;99.90
4002;DHT22;2015;48.670;9.060;2022-09-02T05:29:10;11.40;99.90
4002;DHT22;2015;48.670;9.060;2022-09-02T05:31:42;11.40;99.90
4002;DHT22;2015;48.670;9.060;2022-09-02T05:34:15;11.50;99.90
4002;DHT22;2015;48.670;9.060;2022-09-02T05:36:47;11.50;99.90
4002;DHT22;2015;48.670;9.060;2022-09-02T05:39:19;11.50;99.90
4002;DHT22;2015;48.670;9.060;2022-09-02T05:41:50;11.60;99.90
4002;DHT22;2015;48.670;9.060;2022-09-02T05:44:22;11.60;99.90
4002;DHT22;2015;48.670;9.060;2022-09-02T05:46:54;11.70;99.90
4002;DHT22;2015;48.670;9.060;2022-09-02T05:49:26;11.70;99.90
4002;DHT22;2015;48.670;9.060;2022-09-02T05:51:59;11.80;99.90
4002;DHT22;2015;48.670;9.060;2022-09-02T05:54:33;11.80;99.90
4002;DHT22;2015;48.670;9.060;2022-09-02T05:57:11;11.90;99.90
4002;DHT22;2015;48.670;9.060;2022-09-02T05:59:43;11.90;99.90
4002;DHT22;2015;48.670;9.060;2022-09-02T06:02:17;12.00;99.90
4002;DHT22;2015;48.670;9.060;2022-09-02T06:04:51;12.10;99.90
4002;DHT22;2015;48.670;9.060;2022-09-02T06:07:24;12.10;99.90
4002;DHT22;2015;48.670;9.060;2022-09-02T06:09:56;12.20;99.90
4002;DHT22;2015;48.670;9.060;2022-09-02T06:12:28;12.30;99.90
4002;DHT22;2015;48.670;9.060;2022-09-02T06:15:03;12.30;99.90
4002;DHT22;2015;48.670;9.060;2022-09-02T06:17:35;12.40;99.90
4002;DHT22;2015;48.670;9.060;2022-09-02T06:20:07;12.50;99.90
4002;DHT22;2015;48.670;9.060;2022-09-02T06:22:41;12.60;99.90
4002;DHT22;2015;48.670;9.060;2022-09-02T06:25:13;12.60;99.90
4002;DHT22;2015;48.670;9.060;2022-09-02T06:27:45;12.60;99.90
4002;DHT22;2015;48.670;9.060;2022-09-02T06:30:16;12.70;99.90
4002;DHT22;2015;48.670;9.060;2022-09-02T06:32:48;12.80;99.90
4002;DHT22;2015;48.670;9.060;2022-09-02T06:35:21;12.90;99.90
4002;DHT22;2015;48.670;9.060;2022-09-02T06:37:53;12.90;99.90
4002;DHT22;2015;48.670;9.060;2022-09-02T06:40:25;13.00;99.90
4002;DHT22;2015;48.670;9.060;2022-09-02T06:42:57;13.10;99.90
4002;DHT22;2015;48.670;9.060;2022-09-02T06:45:29;13.20;99.90
4002;DHT22;2015;48.670;9.060;2022-09-02T06:48:02;13.30;99.90
4002;DHT22;2015;48.670;9.060;2022-09-02T06:50:40;13.40;99.90
4002;DHT22;2015;48.670;9.060;2022-09-02T06:53:13;13.60;99.90
4002;DHT22;2015;48.670;9.060;2022-09-02T06:55:45;13.70;99.90
4002;DHT22;2015;48.670;9.060;2022-09-02T06:58:18;13.70;99.90
4002;DHT22;2015;48.670;9.060;2022-09-02T07:00:50;13.80;99.90
4002;DHT22;2015;48.670;9.060;2022-09-02T07:03:22;14.00;99.90
4002;DHT22;2015;48.670;9.060;2022-09-02T07:06:13;14.10;99.90
4002;DHT22;2015;48.670;9.060;2022-09-02T07:08:45;14.20;99.90
4002;DHT22;2015;48.670;9.060;2022-09-02T07:11:22;14.30;99.90
4002;DHT22;2015;48.670;9.060;2022-09-02T07:13:54;14.40;99.90
4002;DHT22;2015;48.670;9.060;2022-09-02T07:16:27;14.50;99.90
4002;DHT22;2015;48.670;9.060;2022-09-02T07:19:00;14.60;99.90
4002;DHT22;2015;48.670;9.060;2022-09-02T07:21:31;14.80;99.90
4002;DHT22;2015;48.670;9.060;2022-09-02T07:24:03;14.90;99.90
4002;DHT22;2015;48.670;9.060;2022-09-02T07:26:36;15.00;99.90
4002;DHT22;2015;48.670;9.060;2022-09-02T07:29:08;15.10;99.90
4002;DHT22;2015;48.670;9.060;2022-09-02T07:31:43;15.20;99.90
4002;DHT22;2015;48.670;9.060;2022-09-02T07:34:15;15.30;99.90
4002;DHT22;2015;48.670;9.060;2022-09-02T07:36:48;15.30;99.90
4002;DHT22;2015;48.670;9.060;2022-09-02T07:39:20;15.40;99.90
4002;DHT22;2015;48.670;9.060;2022-09-02T07:41:52;15.50;99.90
4002;DHT22;2015;48.670;9.060;2022-09-02T07:44:24;15.60;99.90
4002;DHT22;2015;48.670;9.060;2022-09-02T07:46:55;15.70;99.90
4002;DHT22;2015;48.670;9.060;2022-09-02T07:49:27;15.80;99.90
4002;DHT22;2015;48.670;9.060;2022-09-02T07:51:59;15.90;99.90
4002;DHT22;2015;48.670;9.060;2022-09-02T07:54:31;16.10;99.90
4002;DHT22;2015;48.670;9.060;2022-09-02T07:57:03;16.10;99.90
4002;DHT22;2015;48.670;9.060;2022-09-02T07:59:36;16.20;99.90
4002;DHT22;2015;48.670;9.060;2022-09-02T08:02:08;16.30;99.90
4002;DHT22;2015;48.670;9.060;2022-09-02T08:04:40;16.40;99.90
4002;DHT22;2015;48.670;9.060;2022-09-02T08:07:12;16.40;99.90
4002;DHT22;2015;48.670;9.060;2022-09-02T08:09:44;16.50;99.90
4002;DHT22;2015;48.670;9.060;2022-09-02T08:12:16;16.60;99.90
4002;DHT22;2015;48.670;9.060;2022-09-02T08:14:53;16.70;99.90
4002;DHT22;2015;48.670;9.060;2022-09-02T08:17:26;16.70;99.90
4002;DHT22;2015;48.670;9.060;2022-09-02T08:19:58;16.80;99.90
4002;DHT22;2015;48.670;9.060;2022-09-02T08:22:33;16.90;99.90
4002;DHT22;2015;48.670;9.060;2022-09-02T08:25:06;16.90;99.90
4002;DHT22;2015;48.670;9.060;2022-09-02T08:27:39;17.10;99.90
4002;DHT22;2015;48.670;9.060;2022-09-02T08:30:11;17.10;99.90
4002;DHT22;2015;48.670;9.060;2022-09-02T08:32:43;17.20;99.90
4002;DHT22;2015;48.670;9.060;2022-09-02T08:35:14;17.30;99.90
4002;DHT22;2015;48.670;9.060;2022-09-02T08:37:47;17.40;99.90
4002;DHT22;2015;48.670;9.060;2022-09-02T08:40:21;17.50;99.90
4002;DHT22;2015;48.670;9.060;2022-09-02T08:42:55;17.60;99.90
4002;DHT22;2015;48.670;9.060;2022-09-02T08:45:33;17.60;99.90
4002;DHT22;2015;48.670;9.060;2022-09-02T08:50:47;17.80;99.90
4002;DHT22;2015;48.670;9.060;2022-09-02T08:55:58;17.90;99.90
4002;DHT22;2015;48.670;9.060;2022-09-02T08:58:38;18.00;99.90
4002;DHT22;2015;48.670;9.060;2022-09-02T09:01:22;18.10;99.90
4002;DHT22;2015;48.670;9.060;2022-09-02T09:04:10;18.10;99.90
4002;DHT22;2015;48.670;9.060;2022-09-02T09:09:59;18.40;99.90
4002;DHT22;2015;48.670;9.060;2022-09-02T09:20:33;19.00;99.90
4002;DHT22;2015;48.670;9.060;2022-09-02T09:23:32;19.40;99.90
4002;DHT22;2015;48.670;9.060;2022-09-02T09:26:16;20.50;99.90
4002;DHT22;2015;48.670;9.060;2022-09-02T09:28:49;21.70;99.90
4002;DHT22;2015;48.670;9.060;2022-09-02T09:31:23;22.70;99.90
4002;DHT22;2015;48.670;9.060;2022-09-02T09:34:07;23.80;99.90
4002;DHT22;2015;48.670;9.060;2022-09-02T09:41:59;26.80;97.40
4002;DHT22;2015;48.670;9.060;2022-09-02T09:44:40;27.20;95.10
4002;DHT22;2015;48.670;9.060;2022-09-02T09:47:21;27.40;94.30
4002;DHT22;2015;48.670;9.060;2022-09-02T09:50:15;27.80;92.10
4002;DHT22;2015;48.670;9.060;2022-09-02T09:52:47;27.70;91.70
4002;DHT22;2015;48.670;9.060;2022-09-02T09:55:20;27.70;92.30
4002;DHT22;2015;48.670;9.060;2022-09-02T09:58:07;27.60;91.40
4002;DHT22;2015;48.670;9.060;2022-09-02T10:00:39;27.80;91.60
4002;DHT22;2015;48.670;9.060;2022-09-02T10:03:21;28.30;91.20
4002;DHT22;2015;48.670;9.060;2022-09-02T10:05:58;28.50;90.70
4002;DHT22;2015;48.670;9.060;2022-09-02T10:11:27;29.40;83.10
4002;DHT22;2015;48.670;9.060;2022-09-02T10:14:05;28.20;83.50
4002;DHT22;2015;48.670;9.060;2022-09-02T10:17:15;28.60;82.60
4002;DHT22;2015;48.670;9.060;2022-09-02T10:19:51;29.20;83.20
4002;DHT22;2015;48.670;9.060;2022-09-02T10:28:47;28.80;80.00
4002;DHT22;2015;48.670;9.060;2022-09-02T10:31:44;29.10;79.60
4002;DHT22;2015;48.670;9.060;2022-09-02T10:37:20;30.20;76.20
4002;DHT22;2015;48.670;9.060;2022-09-02T10:40:15;29.70;74.40
4002;DHT22;2015;48.670;9.060;2022-09-02T10:45:45;29.60;73.20
4002;DHT22;2015;48.670;9.060;2022-09-02T10:48:50;29.90;75.80
4002;DHT22;2015;48.670;9.060;2022-09-02T10:57:07;30.50;72.70
4002;DHT22;2015;48.670;9.060;2022-09-02T11:00:04;30.40;74.80
4002;DHT22;2015;48.670;9.060;2022-09-02T11:16:59;30.60;71.10
4002;DHT22;2015;48.670;9.060;2022-09-02T11:19:39;30.60;67.50
4002;DHT22;2015;48.670;9.060;2022-09-02T11:22:26;30.30;69.80
4002;DHT22;2015;48.670;9.060;2022-09-02T11:25:24;29.80;70.70
4002;DHT22;2015;48.670;9.060;2022-09-02T11:30:50;26.80;75.50
4002;DHT22;2015;48.670;9.060;2022-09-02T11:36:07;25.40;79.70
4002;DHT22;2015;48.670;9.060;2022-09-02T11:38:42;24.90;81.10
4002;DHT22;2015;48.670;9.060;2022-09-02T11:41:57;24.60;82.20
4002;DHT22;2015;48.670;9.060;2022-09-02T11:53:37;23.20;89.00
4002;DHT22;2015;48.670;9.060;2022-09-02T11:56:21;23.20;90.30
4002;DHT22;2015;48.670;9.060;2022-09-02T11:58:55;23.30;88.80
4002;DHT22;2015;48.670;9.060;2022-09-02T12:01:53;23.30;88.90
4002;DHT22;2015;48.670;9.060;2022-09-02T12:04:26;23.10;85.50
4002;DHT22;2015;48.670;9.060;2022-09-02T12:09:52;22.90;89.60
4002;DHT22;2015;48.670;9.060;2022-09-02T12:15:15;22.90;89.60
4002;DHT22;2015;48.670;9.060;2022-09-02T12:27:04;22.70;90.40
4002;DHT22;2015;48.670;9.060;2022-09-02T12:31:51;22.50;91.40
4002;DHT22;2015;48.670;9.060;2022-09-02T12:37:00;22.70;91.30
4002;DHT22;2015;48.670;9.060;2022-09-02T12:45:04;22.90;91.20
4002;DHT22;2015;48.670;9.060;2022-09-02T12:53:09;22.50;92.40
4002;DHT22;2015;48.670;9.060;2022-09-02T12:58:54;22.80;92.50
4002;DHT22;2015;48.670;9.060;2022-09-02T13:01:59;22.90;93.00
4002;DHT22;2015;48.670;9.060;2022-09-02T13:16:11;22.80;92.50
4002;DHT22;2015;48.670;9.060;2022-09-02T13:21:47;22.70;92.10
4002;DHT22;2015;48.670;9.060;2022-09-02T13:33:10;22.90;91.90
4002;DHT22;2015;48.670;9.060;2022-09-02T13:35:42;22.90;92.00
4002;DHT22;2015;48.670;9.060;2022-09-02T13:38:22;23.00;91.60
4002;DHT22;2015;48.670;9.060;2022-09-02T13:40:55;23.10;91.70
4002;DHT22;2015;48.670;9.060;2022-09-02T13:43:27;23.00;91.00
4002;DHT22;2015;48.670;9.060;2022-09-02T13:46:00;23.00;92.00
4002;DHT22;2015;48.670;9.060;2022-09-02T13:48:33;23.10;92.30
4002;DHT22;2015;48.670;9.060;2022-09-02T13:51:13;23.10;91.60
4002;DHT22;2015;48.670;9.060;2022-09-02T13:53:46;22.80;91.90
4002;DHT22;2015;48.670;9.060;2022-09-02T13:56:39;22.60;92.60
4002;DHT22;2015;48.670;9.060;2022-09-02T13:59:11;22.40;92.60
4002;DHT22;2015;48.670;9.060;2022-09-02T14:01:43;22.50;92.80
4002;DHT22;2015;48.670;9.060;2022-09-02T14:04:16;22.50;92.90
4002;DHT22;2015;48.670;9.060;2022-09-02T14:06:48;22.60;92.50
4002;DHT22;2015;48.670;9.060;2022-09-02T14:09:28;22.50;92.60
4002;DHT22;2015;48.670;9.060;2022-09-02T14:12:04;22.40;92.90
4002;DHT22;2015;48.670;9.060;2022-09-02T14:14:37;22.40;93.00
4002;DHT22;2015;48.670;9.060;2022-09-02T14:17:21;22.20;93.20
4002;DHT22;2015;48.670;9.060;2022-09-02T14:20:16;22.20;93.90
4002;DHT22;2015;48.670;9.060;2022-09-02T14:22:56;22.20;94.20
4002;DHT22;2015;48.670;9.060;2022-09-02T14:25:35;22.20;94.10
4002;DHT22;2015;48.670;9.060;2022-09-02T14:28:18;22.40;94.30
4002;DHT22;2015;48.670;9.060;2022-09-02T14:31:02;22.60;93.30
4002;DHT22;2015;48.670;9.060;2022-09-02T14:33:43;22.70;93.30
4002;DHT22;2015;48.670;9.060;2022-09-02T14:39:14;22.50;93.10
4002;DHT22;2015;48.670;9.060;2022-09-02T14:41:49;22.40;93.00
4002;DHT22;2015;48.670;9.060;2022-09-02T14:44:28;22.50;93.30
4002;DHT22;2015;48.670;9.060;2022-09-02T14:47:05;22.40;92.70
4002;DHT22;2015;48.670;9.060;2022-09-02T14:49:52;22.40;93.10
4002;DHT22;2015;48.670;9.060;2022-09-02T14:52:28;22.50;93.00
4002;DHT22;2015;48.670;9.060;2022-09-02T14:55:00;22.40;92.60
4002;DHT22;2015;48.670;9.060;2022-09-02T14:57:34;22.40;92.50
4002;DHT22;2015;48.670;9.060;2022-09-02T15:00:10;22.40;93.30
4002;DHT22;2015;48.670;9.060;2022-09-02T15:02:44;22.30;93.00
4002;DHT22;2015;48.670;9.060;2022-09-02T15:05:18;22.40;93.30
4002;DHT22;2015;48.670;9.060;2022-09-02T15:07:49;22.20;92.90
4002;DHT22;2015;48.670;9.060;2022-09-02T15:10:22;22.10;93.50
4002;DHT22;2015;48.670;9.060;2022-09-02T15:12:55;22.20;93.20
4002;DHT22;2015;48.670;9.060;2022-09-02T15:15:28;22.30;93.00
4002;DHT22;2015;48.670;9.060;2022-09-02T15:17:59;22.20;93.10
4002;DHT22;2015;48.670;9.060;2022-09-02T15:20:32;22.30;93.30
4002;DHT22;2015;48.670;9.060;2022-09-02T15:23:04;22.30;93.10
4002;DHT22;2015;48.670;9.060;2022-09-02T15:25:36;22.30;93.10
4002;DHT22;2015;48.670;9.060;2022-09-02T15:28:09;22.30;92.90
4002;DHT22;2015;48.670;9.060;2022-09-02T15:30:41;22.20;93.00
4002;DHT22;2015;48.670;9.060;2022-09-02T15:33:13;22.10;93.50
4002;DHT22;2015;48.670;9.060;2022-09-02T15:35:48;22.10;93.20
4002;DHT22;2015;48.670;9.060;2022-09-02T15:38:20;22.20;93.10
4002;DHT22;2015;48.670;9.060;2022-09-02T15:40:52;22.10;93.20
4002;DHT22;2015;48.670;9.060;2022-09-02T15:43:23;22.00;92.90
4002;DHT22;2015;48.670;9.060;2022-09-02T15:45:55;21.90;93.30
4002;DHT22;2015;48.670;9.060;2022-09-02T15:48:27;21.90;94.40
4002;DHT22;2015;48.670;9.060;2022-09-02T15:51:10;22.00;93.60
4002;DHT22;2015;48.670;9.060;2022-09-02T15:53:43;21.90;94.30
4002;DHT22;2015;48.670;9.060;2022-09-02T15:56:19;21.90;93.90
4002;DHT22;2015;48.670;9.060;2022-09-02T15:59:04;21.90;94.30
4002;DHT22;2015;48.670;9.060;2022-09-02T16:01:45;21.90;94.20
4002;DHT22;2015;48.670;9.060;2022-09-02T16:04:17;21.80;94.60
4002;DHT22;2015;48.670;9.060;2022-09-02T16:06:50;21.70;95.00
4002;DHT22;2015;48.670;9.060;2022-09-02T16:09:25;21.60;95.00
4002;DHT22;2015;48.670;9.060;2022-09-02T16:11:56;21.60;94.80
4002;DHT22;2015;48.670;9.060;2022-09-02T16:14:28;21.50;95.50
4002;DHT22;2015;48.670;9.060;2022-09-02T16:17:00;21.60;95.10
4002;DHT22;2015;48.670;9.060;2022-09-02T16:19:32;21.60;94.40
4002;DHT22;2015;48.670;9.060;2022-09-02T16:22:04;21.70;94.60
4002;DHT22;2015;48.670;9.060;2022-09-02T16:24:36;21.60;94.70
4002;DHT22;2015;48.670;9.060;2022-09-02T16:27:07;21.50;94.20
4002;DHT22;2015;48.670;9.060;2022-09-02T16:29:40;21.40;94.60
4002;DHT22;2015;48.670;9.060;2022-09-02T16:32:12;21.40;96.70
4002;DHT22;2015;48.670;9.060;2022-09-02T16:34:58;21.30;96.80
4002;DHT22;2015;48.670;9.060;2022-09-02T16:37:30;21.20;97.80
4002;DHT22;2015;48.670;9.060;2022-09-02T16:40:02;21.10;97.60
4002;DHT22;2015;48.670;9.060;2022-09-02T16:42:34;21.00;97.40
4002;DHT22;2015;48.670;9.060;2022-09-02T16:45:09;21.00;98.60
4002;DHT22;2015;48.670;9.060;2022-09-02T16:47:40;21.00;98.60
4002;DHT22;2015;48.670;9.060;2022-09-02T16:50:12;21.00;97.30
4002;DHT22;2015;48.670;9.060;2022-09-02T16:52:44;21.10;96.80
4002;DHT22;2015;48.670;9.060;2022-09-02T16:55:16;21.10;96.60
4002;DHT22;2015;48.670;9.060;2022-09-02T16:57:49;21.00;96.20
4002;DHT22;2015;48.670;9.060;2022-09-02T17:00:21;21.00;97.30
4002;DHT22;2015;48.670;9.060;2022-09-02T17:02:54;20.80;97.80
4002;DHT22;2015;48.670;9.060;2022-09-02T17:05:26;20.70;99.00
4002;DHT22;2015;48.670;9.060;2022-09-02T17:07:57;20.60;99.60
4002;DHT22;2015;48.670;9.060;2022-09-02T17:10:33;20.50;99.40
4002;DHT22;2015;48.670;9.060;2022-09-02T17:13:05;20.40;99.90
4002;DHT22;2015;48.670;9.060;2022-09-02T17:15:37;20.30;99.90
4002;DHT22;2015;48.670;9.060;2022-09-02T17:18:09;20.20;99.90
4002;DHT22;2015;48.670;9.060;2022-09-02T17:20:40;20.10;99.90
4002;DHT22;2015;48.670;9.060;2022-09-02T17:23:12;20.00;99.90
4002;DHT22;2015;48.670;9.060;2022-09-02T17:25:45;20.00;99.90
4002;DHT22;2015;48.670;9.060;2022-09-02T17:28:17;19.90;99.90
4002;DHT22;2015;48.670;9.060;2022-09-02T17:30:48;19.70;99.90
4002;DHT22;2015;48.670;9.060;2022-09-02T17:33:20;19.60;99.90
4002;DHT22;2015;48.670;9.060;2022-09-02T17:35:56;19.50;99.90
4002;DHT22;2015;48.670;9.060;2022-09-02T17:38:28;19.40;99.90
4002;DHT22;2015;48.670;9.060;2022-09-02T17:41:00;19.30;99.90
4002;DHT22;2015;48.670;9.060;2022-09-02T17:43:50;19.20;99.90
4002;DHT22;2015;48.670;9.060;2022-09-02T17:46:22;19.10;99.90
4002;DHT22;2015;48.670;9.060;2022-09-02T17:48:54;19.00;99.90
4002;DHT22;2015;48.670;9.060;2022-09-02T17:51:47;18.90;99.90
4002;DHT22;2015;48.670;9.060;2022-09-02T17:54:19;18.80;99.90
4002;DHT22;2015;48.670;9.060;2022-09-02T17:57:06;18.80;99.90
4002;DHT22;2015;48.670;9.060;2022-09-02T18:05:30;18.60;99.90
4002;DHT22;2015;48.670;9.060;2022-09-02T18:11:01;18.40;99.90
4002;DHT22;2015;48.670;9.060;2022-09-02T18:19:28;18.30;99.90
4002;DHT22;2015;48.670;9.060;2022-09-02T18:25:36;18.10;99.90
4002;DHT22;2015;48.670;9.060;2022-09-02T18:31:15;18.00;99.90
4002;DHT22;2015;48.670;9.060;2022-09-02T18:48:25;17.70;99.90
4002;DHT22;2015;48.670;9.060;2022-09-02T18:51:35;17.60;99.90
4002;DHT22;2015;48.670;9.060;2022-09-02T18:54:20;17.60;99.90
4002;DHT22;2015;48.670;9.060;2022-09-02T18:56:58;17.50;99.90
4002;DHT22;2015;48.670;9.060;2022-09-02T19:02:33;17.40;99.90
4002;DHT22;2015;48.670;9.060;2022-09-02T19:05:10;17.30;99.90
4002;DHT22;2015;48.670;9.060;2022-09-02T19:07:44;17.30;99.90
4002;DHT22;2015;48.670;9.060;2022-09-02T19:10:34;17.20;99.90
4002;DHT22;2015;48.670;9.060;2022-09-02T19:13:06;17.20;99.90
4002;DHT22;2015;48.670;9.060;2022-09-02T19:15:39;17.10;99.90
4002;DHT22;2015;48.670;9.060;2022-09-02T19:18:11;17.10;99.90
4002;DHT22;2015;48.670;9.060;2022-09-02T19:20:44;17.00;99.90
4002;DHT22;2015;48.670;9.060;2022-09-02T19:23:15;17.00;99.90
4002;DHT22;2015;48.670;9.060;2022-09-02T19:25:47;16.90;99.90
4002;DHT22;2015;48.670;9.060;2022-09-02T19:28:20;16.90;99.90
4002;DHT22;2015;48.670;9.060;2022-09-02T19:30:57;16.90;99.90
4002;DHT22;2015;48.670;9.060;2022-09-02T19:33:33;16.90;99.90
4002;DHT22;2015;48.670;9.060;2022-09-02T19:36:06;16.90;99.90
4002;DHT22;2015;48.670;9.060;2022-09-02T19:38:38;16.80;99.90
4002;DHT22;2015;48.670;9.060;2022-09-02T19:41:11;16.80;99.90
4002;DHT22;2015;48.670;9.060;2022-09-02T19:43:43;16.80;99.90